Hachinohemaru — JE3089 — position and weather

sailwx.info

Track history (hours):
 
Tides and Currents Weather Stations Pressure Air Temp Water Temp Dewpoint Dewpoint Depression Visibility Wind Speed Wind Dir Waves Ship Positions

Hachinohemaru

Last reported at 2016-Jun-28 21:30 UTC. Time now 2016-Jun-29 23:42 UTC.
Position N 36°10' E 140°48'.

Length 168 m; draft 6.5 m.

Type: Cargo ship. MMSI: 431700018.

Date/timePositionNaut miles runAvg speedWind from/ knotsBaromVisibWave heightAir tempDewpointWater temp
2016-Jun-28 21:30N 36°10' E 140°48'1313.5
2016-Jun-28 20:33N 35°58' E 140°43'0 0.0
2016-Jun-28 09:33N 35°58' E 140°42'  
2016-Jun-25 20:18N 36°12' E 140°48'1114.1
2016-Jun-25 19:32N 36°02' E 140°44'6 0.2
2016-Jun-24 16:08N 35°56' E 140°41'0 0.0
2016-Jun-24 09:29N 35°56' E 140°41'0 0.0
2016-Jun-24 08:29N 35°56' E 140°41'0 0.1
2016-Jun-24 04:33N 35°56' E 140°42'29 9.2
2016-Jun-24 01:25N 35°27' E 140°46'1214.1
2016-Jun-24 00:33N 35°17' E 140°38'1513.5
2016-Jun-23 23:25N 35°05' E 140°27'1313.8
2016-Jun-23 22:30N 34°57' E 140°14'1313.8
2016-Jun-23 21:34N 34°50' E 140°01'1413.8
2016-Jun-23 20:33N 34°43' E 139°46'  
Track history (hours):
 
Tides and Currents Weather Stations Pressure Air Temp Water Temp Dewpoint Dewpoint Depression Visibility Wind Speed Wind Dir Waves Ship Positions

Hachinohemaru

Last reported at 2016-Jun-28 21:30 UTC. Time now 2016-Jun-29 23:42 UTC.
Position N 36°10' E 140°48'.

Length 168 m; draft 6.5 m.

Type: Cargo ship. MMSI: 431700018.

Date/timePositionNaut miles runAvg speedWind from/ knotsBaromVisibWave heightAir tempDewpointWater temp
2016-Jun-28 21:30N 36°10' E 140°48'1313.5
2016-Jun-28 20:33N 35°58' E 140°43'0 0.0
2016-Jun-28 09:33N 35°58' E 140°42'  
2016-Jun-25 20:18N 36°12' E 140°48'1114.1
2016-Jun-25 19:32N 36°02' E 140°44'6 0.2
2016-Jun-24 16:08N 35°56' E 140°41'0 0.0
2016-Jun-24 09:29N 35°56' E 140°41'0 0.0
2016-Jun-24 08:29N 35°56' E 140°41'0 0.1
2016-Jun-24 04:33N 35°56' E 140°42'29 9.2
2016-Jun-24 01:25N 35°27' E 140°46'1214.1
2016-Jun-24 00:33N 35°17' E 140°38'1513.5
2016-Jun-23 23:25N 35°05' E 140°27'1313.8
2016-Jun-23 22:30N 34°57' E 140°14'1313.8
2016-Jun-23 21:34N 34°50' E 140°01'1413.8
2016-Jun-23 20:33N 34°43' E 139°46'  

Dump ship's entire track history